createdAt,value
2019-02-16T00:01:11.876Z,0.70
2019-02-16T00:03:39.705Z,0.60
2019-02-16T00:06:07.417Z,0.60
2019-02-16T00:08:35.125Z,0.60
2019-02-16T00:11:02.732Z,0.50
2019-02-16T00:13:31.550Z,0.50
2019-02-16T00:15:59.198Z,0.50
2019-02-16T00:18:26.830Z,0.40
2019-02-16T00:21:03.450Z,0.40
2019-02-16T00:23:25.176Z,0.40
2019-02-16T00:25:52.714Z,0.30
2019-02-16T00:28:23.245Z,0.40
2019-02-16T00:30:50.788Z,0.40
2019-02-16T00:33:18.445Z,0.30
2019-02-16T00:35:46.186Z,0.30
2019-02-16T00:38:13.859Z,0.20
2019-02-16T00:40:41.559Z,0.20
2019-02-16T00:43:09.471Z,0.20
2019-02-16T00:45:37.494Z,0.10
2019-02-16T00:48:05.119Z,0.10
2019-02-16T00:50:33.060Z,0.00
2019-02-16T00:53:00.650Z,0.10
2019-02-16T00:55:28.803Z,0.00
2019-02-16T00:57:56.179Z,-0.10
2019-02-16T01:00:24.099Z,-0.10
2019-02-16T01:02:51.539Z,-0.10
2019-02-16T01:05:19.059Z,-0.20
2019-02-16T01:07:46.606Z,-0.20
2019-02-16T01:10:14.370Z,-0.30
2019-02-16T01:12:41.910Z,-0.30
2019-02-16T01:15:10.133Z,-0.40
2019-02-16T01:17:37.770Z,-0.40
2019-02-16T01:20:10.375Z,-0.40
2019-02-16T01:22:37.966Z,-0.60
2019-02-16T01:25:05.905Z,-0.50
2019-02-16T01:27:33.459Z,-0.50
2019-02-16T01:30:01.200Z,-0.40
2019-02-16T01:32:28.667Z,-0.40
2019-02-16T01:34:59.017Z,-0.40
2019-02-16T01:37:26.631Z,-0.40
2019-02-16T01:39:54.132Z,-0.40
2019-02-16T01:42:21.829Z,-0.40
2019-02-16T01:44:51.330Z,-0.30
2019-02-16T01:47:18.939Z,-0.30
2019-02-16T01:49:46.827Z,-0.30
2019-02-16T01:52:14.398Z,-0.30
2019-02-16T01:54:43.132Z,-0.30
2019-02-16T01:57:10.723Z,-0.30
2019-02-16T01:59:38.319Z,-0.40
2019-02-16T02:02:05.929Z,-0.40
2019-02-16T02:04:33.299Z,-0.50
2019-02-16T02:07:00.699Z,-0.40
2019-02-16T02:09:28.337Z,-0.50
2019-02-16T02:11:55.807Z,-0.50
2019-02-16T02:14:23.316Z,-0.50
2019-02-16T02:16:50.732Z,-0.50
2019-02-16T02:19:18.397Z,-0.50
2019-02-16T02:21:45.909Z,-0.40
2019-02-16T02:24:14.745Z,-0.50
2019-02-16T02:26:43.679Z,-0.50
2019-02-16T02:29:11.046Z,-0.50
2019-02-16T02:31:38.581Z,-0.50
2019-02-16T02:34:06.074Z,-0.50
2019-02-16T02:36:33.589Z,-0.50
2019-02-16T02:39:00.989Z,-0.50
2019-02-16T02:41:28.434Z,-0.50
2019-02-16T02:43:56.056Z,-0.50
2019-02-16T02:46:23.625Z,-0.50
2019-02-16T02:48:51.141Z,-0.50
2019-02-16T02:51:18.784Z,-0.60
2019-02-16T02:53:46.229Z,-0.60
2019-02-16T02:56:13.856Z,-0.60
2019-02-16T02:58:41.343Z,-0.60
2019-02-16T03:01:08.839Z,-0.60
2019-02-16T03:03:36.645Z,-0.70
2019-02-16T03:06:04.153Z,-0.70
2019-02-16T03:08:34.073Z,-0.70
2019-02-16T03:11:03.235Z,-0.70
2019-02-16T03:13:31.172Z,-0.70
2019-02-16T03:15:58.980Z,-0.80
2019-02-16T03:18:26.828Z,-0.80
2019-02-16T03:20:55.146Z,-0.80
2019-02-16T03:23:22.568Z,-0.80
2019-02-16T03:26:04.845Z,-0.80
2019-02-16T03:28:47.932Z,-0.80
2019-02-16T03:32:07.005Z,-0.80
2019-02-16T03:34:42.272Z,-0.80
2019-02-16T03:37:56.869Z,-0.80
2019-02-16T03:40:24.903Z,-0.90
2019-02-16T03:42:52.390Z,-0.90
2019-02-16T03:45:19.812Z,-0.90
2019-02-16T03:47:47.335Z,-0.90
2019-02-16T03:50:14.842Z,-0.90
2019-02-16T03:52:42.222Z,-0.80
2019-02-16T03:55:09.756Z,-0.90
2019-02-16T03:57:37.303Z,-0.80
2019-02-16T04:00:06.223Z,-0.90
2019-02-16T04:02:33.688Z,-0.90
2019-02-16T04:05:01.310Z,-0.90
2019-02-16T04:07:30.754Z,-0.90
2019-02-16T04:09:58.301Z,-0.90
2019-02-16T04:12:26.792Z,-0.80
2019-02-16T04:14:54.356Z,-0.90
2019-02-16T04:17:25.067Z,-0.90
2019-02-16T04:19:52.670Z,-0.90
2019-02-16T04:22:24.513Z,-0.90
2019-02-16T04:24:49.671Z,-0.90
2019-02-16T04:27:17.647Z,-0.90
2019-02-16T04:29:45.365Z,-0.90
2019-02-16T04:32:12.789Z,-0.90
2019-02-16T04:34:40.240Z,-0.90
2019-02-16T04:37:07.558Z,-0.90
2019-02-16T04:39:35.021Z,-0.90
2019-02-16T04:42:02.660Z,-0.90
2019-02-16T04:44:30.104Z,-0.90
2019-02-16T04:46:57.847Z,-0.90
2019-02-16T04:49:25.377Z,-0.90
2019-02-16T04:51:54.011Z,-0.90
2019-02-16T04:54:21.528Z,-0.90
2019-02-16T04:56:49.173Z,-0.90
2019-02-16T04:59:16.634Z,-0.90
2019-02-16T05:01:44.300Z,-1.00
2019-02-16T05:04:11.743Z,-1.00
2019-02-16T05:06:39.340Z,-1.00
2019-02-16T05:09:07.094Z,-1.00
2019-02-16T05:11:34.530Z,-1.10
2019-02-16T05:14:01.997Z,-1.10
2019-02-16T05:16:29.665Z,-1.10
2019-02-16T05:18:57.166Z,-1.10
2019-02-16T05:21:24.687Z,-1.20
2019-02-16T05:23:52.570Z,-1.20
2019-02-16T05:26:20.108Z,-1.20
2019-02-16T05:28:47.736Z,-1.20
2019-02-16T05:31:15.346Z,-1.20
2019-02-16T05:33:43.202Z,-1.20
2019-02-16T05:36:10.738Z,-1.20
2019-02-16T05:38:38.515Z,-1.20
2019-02-16T05:41:07.811Z,-1.30
2019-02-16T05:43:35.290Z,-1.20
2019-02-16T05:46:03.799Z,-1.20
2019-02-16T05:48:31.187Z,-1.30
2019-02-16T05:50:58.666Z,-1.30
2019-02-16T05:53:26.008Z,-1.30
2019-02-16T05:55:54.271Z,-1.20
2019-02-16T05:58:21.728Z,-1.20
2019-02-16T06:00:49.115Z,-1.20
2019-02-16T06:03:16.874Z,-1.20
2019-02-16T06:05:44.225Z,-1.20
2019-02-16T06:08:11.673Z,-1.10
2019-02-16T06:10:39.321Z,-1.10
2019-02-16T06:13:06.801Z,-1.10
2019-02-16T06:15:34.160Z,-1.00
2019-02-16T06:18:01.585Z,-1.00
2019-02-16T06:20:29.068Z,-0.90
2019-02-16T06:23:03.829Z,-0.80
2019-02-16T06:25:27.079Z,-0.80
2019-02-16T06:27:54.748Z,-0.70
2019-02-16T06:30:22.368Z,-0.50
2019-02-16T06:32:55.016Z,-0.40
2019-02-16T06:35:28.230Z,-0.30
2019-02-16T06:38:01.079Z,-0.10
2019-02-16T06:40:30.517Z,0.10
2019-02-16T06:43:01.839Z,0.30
2019-02-16T06:45:32.474Z,0.50
2019-02-16T06:48:00.616Z,0.70
2019-02-16T06:50:37.048Z,0.90
2019-02-16T06:53:12.595Z,1.20
2019-02-16T06:55:51.753Z,1.40
2019-02-16T06:58:19.403Z,1.60
2019-02-16T07:00:46.926Z,1.90
2019-02-16T07:03:14.791Z,2.10
2019-02-16T07:05:42.470Z,2.30
2019-02-16T07:08:09.877Z,2.50
2019-02-16T07:10:37.650Z,2.70
2019-02-16T07:13:06.801Z,2.90
2019-02-16T07:15:34.378Z,3.20
2019-02-16T07:18:27.728Z,3.60
2019-02-16T07:21:01.574Z,3.80
2019-02-16T07:23:30.021Z,4.40
2019-02-16T07:25:57.643Z,4.70
2019-02-16T07:28:25.077Z,5.10
2019-02-16T07:30:52.656Z,5.70
2019-02-16T07:33:20.236Z,6.20
2019-02-16T07:35:47.769Z,6.90
2019-02-16T07:38:16.511Z,7.50
2019-02-16T07:40:43.910Z,8.20
2019-02-16T07:43:31.112Z,8.90
2019-02-16T07:46:10.803Z,9.60
2019-02-16T07:49:09.633Z,10.40
2019-02-16T07:51:49.368Z,11.10
2019-02-16T07:54:31.115Z,11.90
2019-02-16T07:57:27.193Z,12.60
2019-02-16T08:00:09.800Z,13.20
2019-02-16T08:02:55.295Z,14.00
2019-02-16T08:05:51.183Z,14.70
2019-02-16T08:08:23.788Z,15.40
2019-02-16T08:11:00.627Z,16.10
2019-02-16T08:13:37.644Z,16.80
2019-02-16T08:16:21.448Z,17.60
2019-02-16T08:19:17.502Z,18.30
2019-02-16T08:22:03.226Z,19.10
2019-02-16T08:24:41.543Z,19.80
2019-02-16T08:27:36.140Z,20.30
2019-02-16T08:30:22.663Z,20.80
2019-02-16T08:33:05.626Z,21.60
2019-02-16T08:35:40.928Z,22.30
2019-02-16T08:38:22.328Z,22.80
2019-02-16T08:41:12.518Z,23.20
2019-02-16T08:43:49.723Z,23.80
2019-02-16T08:46:35.757Z,24.40
2019-02-16T08:49:16.205Z,25.00
2019-02-16T08:51:57.567Z,25.40
2019-02-16T08:54:38.088Z,25.90
2019-02-16T08:57:21.569Z,26.20
2019-02-16T09:00:07.421Z,26.60
2019-02-16T09:02:41.250Z,27.00
2019-02-16T09:05:28.610Z,27.50
2019-02-16T09:08:19.730Z,28.00
2019-02-16T09:10:58.038Z,28.40
2019-02-16T09:13:31.632Z,28.60
2019-02-16T09:16:19.093Z,28.70
2019-02-16T09:19:01.721Z,28.30
2019-02-16T09:21:58.072Z,28.50
2019-02-16T09:24:45.275Z,28.60
2019-02-16T09:27:44.740Z,29.30
2019-02-16T09:30:30.862Z,29.60
2019-02-16T09:33:17.160Z,29.70
2019-02-16T09:36:04.571Z,29.70
2019-02-16T09:38:38.964Z,30.50
2019-02-16T09:41:25.950Z,30.90
2019-02-16T09:44:25.525Z,31.20
2019-02-16T09:46:58.448Z,31.60
2019-02-16T09:49:34.856Z,32.20
2019-02-16T09:52:23.140Z,33.00
2019-02-16T09:55:09.493Z,33.40
2019-02-16T09:57:51.208Z,33.40
2019-02-16T10:00:56.639Z,33.60
2019-02-16T10:03:33.124Z,34.20
2019-02-16T10:06:19.431Z,34.50
2019-02-16T10:08:58.695Z,34.80
2019-02-16T10:11:43.544Z,35.20
2019-02-16T10:14:29.618Z,35.40
2019-02-16T10:17:28.407Z,36.00
2019-02-16T10:20:21.233Z,36.30
2019-02-16T10:23:10.179Z,36.80
2019-02-16T10:26:06.324Z,37.40
2019-02-16T10:28:41.629Z,37.80
2019-02-16T10:31:16.107Z,37.60
2019-02-16T10:34:08.559Z,37.80
2019-02-16T10:37:01.654Z,38.30
2019-02-16T10:39:53.018Z,38.10
2019-02-16T10:42:28.068Z,38.40
2019-02-16T10:45:01.637Z,39.00
2019-02-16T10:47:43.589Z,39.60
2019-02-16T10:50:29.732Z,40.30
2019-02-16T10:53:08.819Z,40.30
2019-02-16T10:55:53.007Z,40.00
2019-02-16T10:58:43.390Z,39.90
2019-02-16T11:01:33.646Z,39.70
2019-02-16T11:04:26.387Z,39.90
2019-02-16T11:07:10.341Z,40.50
2019-02-16T11:09:47.543Z,40.60
2019-02-16T11:12:34.988Z,40.50
2019-02-16T11:15:30.463Z,41.00
2019-02-16T11:18:18.039Z,41.20
2019-02-16T11:21:02.595Z,41.20
2019-02-16T11:23:37.971Z,41.00
2019-02-16T11:26:25.256Z,40.30
2019-02-16T11:29:01.932Z,40.60
2019-02-16T11:31:43.726Z,40.30
2019-02-16T11:34:37.008Z,40.70
2019-02-16T11:37:30.436Z,40.70
2019-02-16T11:40:08.460Z,40.90
2019-02-16T11:42:47.274Z,41.30
2019-02-16T11:45:50.766Z,42.20
2019-02-16T11:48:29.091Z,43.00
2019-02-16T11:51:17.485Z,43.60
2019-02-16T11:53:52.080Z,43.80
2019-02-16T11:56:41.956Z,44.20
2019-02-16T11:59:35.825Z,44.20
2019-02-16T12:02:21.047Z,44.50
2019-02-16T12:04:53.028Z,44.80
2019-02-16T12:07:40.050Z,44.80
2019-02-16T12:10:30.224Z,44.50
2019-02-16T12:13:29.809Z,44.30
2019-02-16T12:16:23.780Z,44.40
2019-02-16T12:19:11.869Z,43.70
2019-02-16T12:21:53.843Z,43.20
2019-02-16T12:24:44.538Z,43.10
2019-02-16T12:27:30.436Z,43.20
2019-02-16T12:30:26.941Z,43.40
2019-02-16T12:33:23.461Z,43.30
2019-02-16T12:36:23.514Z,43.80
2019-02-16T12:39:08.068Z,44.20
2019-02-16T12:41:58.355Z,44.60
2019-02-16T12:44:36.151Z,45.10
2019-02-16T12:47:26.418Z,45.20
2019-02-16T12:50:29.349Z,45.00
2019-02-16T12:53:16.999Z,44.80
2019-02-16T12:55:57.864Z,44.90
2019-02-16T12:58:36.495Z,44.70
2019-02-16T13:01:11.018Z,44.70
2019-02-16T13:04:08.435Z,44.50
2019-02-16T13:06:46.811Z,44.60
2019-02-16T13:09:32.726Z,44.50
2019-02-16T13:12:09.483Z,43.90
2019-02-16T13:15:12.197Z,43.70
2019-02-16T13:17:54.410Z,43.40
2019-02-16T13:20:44.814Z,43.00
2019-02-16T13:23:31.935Z,43.20
2019-02-16T13:26:10.858Z,43.20
2019-02-16T13:28:50.157Z,42.70
2019-02-16T13:31:43.257Z,42.80
2019-02-16T13:34:39.477Z,42.60
2019-02-16T13:37:34.452Z,42.60
2019-02-16T13:40:22.983Z,42.40
2019-02-16T13:43:23.987Z,42.50
2019-02-16T13:46:02.034Z,41.60
2019-02-16T13:48:36.990Z,40.90
2019-02-16T13:51:18.816Z,40.70
2019-02-16T13:54:05.460Z,40.20
2019-02-16T13:56:57.850Z,40.30
2019-02-16T13:59:43.695Z,40.40
2019-02-16T14:02:36.970Z,40.00
2019-02-16T14:05:17.846Z,39.90
2019-02-16T14:07:56.024Z,39.90
2019-02-16T14:10:43.612Z,39.70
2019-02-16T14:13:30.825Z,39.40
2019-02-16T14:16:09.270Z,39.00
2019-02-16T14:18:36.920Z,38.40
2019-02-16T14:21:04.683Z,37.90
2019-02-16T14:23:32.442Z,37.30
2019-02-16T14:26:00.100Z,36.90
2019-02-16T14:28:27.994Z,36.50
2019-02-16T14:30:55.512Z,36.10
2019-02-16T14:33:23.094Z,35.90
2019-02-16T14:35:50.887Z,35.60
2019-02-16T14:38:38.661Z,35.10
2019-02-16T14:41:06.359Z,34.70
2019-02-16T14:43:34.176Z,33.90
2019-02-16T14:46:01.861Z,33.50
2019-02-16T14:48:29.492Z,33.10
2019-02-16T14:50:57.204Z,32.80
2019-02-16T14:53:25.791Z,32.00
2019-02-16T14:55:54.485Z,31.30
2019-02-16T14:58:23.585Z,30.70
2019-02-16T15:00:51.181Z,30.10
2019-02-16T15:03:19.231Z,28.90
2019-02-16T15:05:48.328Z,27.20
2019-02-16T15:08:16.796Z,25.60
2019-02-16T15:10:48.141Z,24.30
2019-02-16T15:13:17.002Z,23.10
2019-02-16T15:15:46.981Z,22.20
2019-02-16T15:18:14.443Z,21.30
2019-02-16T15:20:44.767Z,20.50
2019-02-16T15:23:14.123Z,19.90
2019-02-16T15:25:41.933Z,19.30
2019-02-16T15:28:09.847Z,18.70
2019-02-16T15:30:37.621Z,18.30
2019-02-16T15:33:05.328Z,17.80
2019-02-16T15:35:33.166Z,17.40
2019-02-16T15:38:01.876Z,17.00
2019-02-16T15:40:30.703Z,16.60
2019-02-16T15:42:58.575Z,16.20
2019-02-16T15:45:26.261Z,15.80
2019-02-16T15:47:55.281Z,15.40
2019-02-16T15:50:23.054Z,14.90
2019-02-16T15:52:51.150Z,14.50
2019-02-16T15:55:18.678Z,14.10
2019-02-16T15:57:46.077Z,13.80
2019-02-16T16:00:22.336Z,13.40
2019-02-16T16:02:50.529Z,13.10
2019-02-16T16:05:18.303Z,12.70
2019-02-16T16:07:51.157Z,12.40
2019-02-16T16:10:28.940Z,12.10
2019-02-16T16:13:14.666Z,11.80
2019-02-16T16:15:56.773Z,11.60
2019-02-16T16:18:31.431Z,11.30
2019-02-16T16:21:14.711Z,11.00
2019-02-16T16:24:34.365Z,10.70
2019-02-16T16:27:13.132Z,10.40
2019-02-16T16:29:57.853Z,10.00
2019-02-16T16:32:50.973Z,9.80
2019-02-16T16:35:38.328Z,9.50
2019-02-16T16:38:28.409Z,9.20
2019-02-16T16:41:21.378Z,9.00
2019-02-16T16:43:58.463Z,8.80
2019-02-16T16:46:45.071Z,8.60
2019-02-16T16:49:32.421Z,8.40
2019-02-16T16:52:18.174Z,8.30
2019-02-16T16:54:53.721Z,8.10
2019-02-16T16:57:35.497Z,7.90
2019-02-16T17:00:21.797Z,7.70
2019-02-16T17:03:03.178Z,7.60
2019-02-16T17:05:41.910Z,7.40
2019-02-16T17:08:17.107Z,7.20
2019-02-16T17:10:49.758Z,7.00
2019-02-16T17:13:43.203Z,6.80
2019-02-16T17:16:34.248Z,6.70
2019-02-16T17:19:10.189Z,6.50
2019-02-16T17:21:49.720Z,6.30
2019-02-16T17:24:45.732Z,6.20
2019-02-16T17:27:32.741Z,6.00
2019-02-16T17:30:06.034Z,5.90
2019-02-16T17:32:44.768Z,5.70
2019-02-16T17:35:37.884Z,5.60
2019-02-16T17:38:37.428Z,5.50
2019-02-16T17:41:20.248Z,5.30
2019-02-16T17:44:11.265Z,5.10
2019-02-16T17:46:57.315Z,5.00
2019-02-16T17:49:44.486Z,4.80
2019-02-16T17:52:20.826Z,4.70
2019-02-16T17:54:57.331Z,4.60
2019-02-16T17:57:35.737Z,4.50
2019-02-16T18:00:13.547Z,4.40
2019-02-16T18:02:59.127Z,4.20
2019-02-16T18:05:45.458Z,4.10
2019-02-16T18:08:31.829Z,4.00
2019-02-16T18:11:23.257Z,3.80
2019-02-16T18:14:17.342Z,3.70
2019-02-16T18:17:08.156Z,3.60
2019-02-16T18:20:02.836Z,3.40
2019-02-16T18:22:52.223Z,3.30
2019-02-16T18:25:28.223Z,3.10
2019-02-16T18:28:16.282Z,3.00
2019-02-16T18:31:01.702Z,2.90
2019-02-16T18:33:55.163Z,2.80
2019-02-16T18:36:34.437Z,2.70
2019-02-16T18:39:15.747Z,2.60
2019-02-16T18:42:11.940Z,2.60
2019-02-16T18:44:46.358Z,2.50
2019-02-16T18:47:35.688Z,2.40
2019-02-16T18:50:12.746Z,2.40
2019-02-16T18:53:04.131Z,2.30
2019-02-16T18:56:00.357Z,2.30
2019-02-16T18:58:47.268Z,2.20
2019-02-16T19:01:25.418Z,2.10
2019-02-16T19:04:15.156Z,2.10
2019-02-16T19:07:09.091Z,2.00
2019-02-16T19:09:55.439Z,2.00
2019-02-16T19:12:33.464Z,1.90
2019-02-16T19:15:13.222Z,1.90
2019-02-16T19:18:00.452Z,2.00
2019-02-16T19:20:38.882Z,1.70
2019-02-16T19:23:24.935Z,1.60
2019-02-16T19:26:04.526Z,1.60
2019-02-16T19:29:12.836Z,1.40
2019-02-16T19:32:00.078Z,1.40
2019-02-16T19:34:36.758Z,1.30
2019-02-16T19:37:27.369Z,1.30
2019-02-16T19:40:17.722Z,1.20
2019-02-16T19:43:11.797Z,1.10
2019-02-16T19:46:08.197Z,1.10
2019-02-16T19:48:45.256Z,1.10
2019-02-16T19:51:35.525Z,1.00
2019-02-16T19:54:23.103Z,0.90
2019-02-16T19:57:00.386Z,0.90
2019-02-16T19:59:46.979Z,0.80
2019-02-16T20:02:43.544Z,0.90
2019-02-16T20:05:30.847Z,0.70
2019-02-16T20:08:14.914Z,0.70
2019-02-16T20:10:52.431Z,0.60
2019-02-16T20:13:37.077Z,0.60
2019-02-16T20:16:11.703Z,0.50
2019-02-16T20:18:57.471Z,0.50
2019-02-16T20:21:44.656Z,0.50
2019-02-16T20:24:34.512Z,0.50
2019-02-16T20:27:21.781Z,0.40
2019-02-16T20:29:59.965Z,0.40
2019-02-16T20:32:57.718Z,0.30
2019-02-16T20:35:50.786Z,0.30
2019-02-16T20:38:26.554Z,0.50
2019-02-16T20:41:11.869Z,0.30
2019-02-16T20:43:57.876Z,0.30
2019-02-16T20:46:40.111Z,0.20
2019-02-16T20:49:27.973Z,0.20
2019-02-16T20:52:03.500Z,0.20
2019-02-16T20:55:06.050Z,0.20
2019-02-16T20:57:48.489Z,0.20
2019-02-16T21:00:39.422Z,0.10
2019-02-16T21:03:34.112Z,0.10
2019-02-16T21:06:11.813Z,0.10
2019-02-16T21:08:56.877Z,0.00
2019-02-16T21:11:33.708Z,-0.10
2019-02-16T21:14:12.574Z,-0.10
2019-02-16T21:16:54.547Z,-0.20
2019-02-16T21:19:42.439Z,-0.30
2019-02-16T21:22:29.719Z,-0.40
2019-02-16T21:25:04.803Z,-0.30
2019-02-16T21:27:40.098Z,-0.50
2019-02-16T21:30:26.621Z,-0.50
2019-02-16T21:33:03.329Z,-0.50
2019-02-16T21:35:50.534Z,-0.60
2019-02-16T21:38:41.085Z,-0.60
2019-02-16T21:41:31.046Z,-0.70
2019-02-16T21:44:18.431Z,-0.70
2019-02-16T21:47:04.263Z,-0.80
2019-02-16T21:49:40.382Z,-0.90
2019-02-16T21:52:30.099Z,-0.90
2019-02-16T21:55:03.394Z,-0.90
2019-02-16T21:58:07.847Z,-0.90
2019-02-16T22:00:48.075Z,-0.80
2019-02-16T22:03:23.649Z,-0.90
2019-02-16T22:06:07.267Z,-0.90
2019-02-16T22:08:42.130Z,-1.00
2019-02-16T22:11:28.396Z,-1.00
2019-02-16T22:13:56.095Z,-1.10
2019-02-16T22:16:23.497Z,-1.00
2019-02-16T22:18:52.082Z,-0.90
2019-02-16T22:21:19.638Z,-1.10
2019-02-16T22:23:47.430Z,-1.10
2019-02-16T22:26:14.790Z,-1.10
2019-02-16T22:28:42.444Z,-1.10
2019-02-16T22:31:10.262Z,-1.10
2019-02-16T22:33:37.797Z,-1.10
2019-02-16T22:36:05.411Z,-1.10
2019-02-16T22:38:33.138Z,-1.10
2019-02-16T22:41:00.705Z,-1.10
2019-02-16T22:43:28.430Z,-1.10
2019-02-16T22:45:56.375Z,-1.10
2019-02-16T22:48:23.997Z,-1.10
2019-02-16T22:50:51.492Z,-1.00
2019-02-16T22:53:19.050Z,-1.00
2019-02-16T22:55:47.189Z,-0.90
2019-02-16T22:58:15.226Z,-0.90
2019-02-16T23:00:47.942Z,-0.90
2019-02-16T23:03:17.542Z,-0.80
2019-02-16T23:05:45.418Z,-0.90
2019-02-16T23:08:13.046Z,-0.80
2019-02-16T23:10:40.869Z,-0.80
2019-02-16T23:13:08.935Z,-0.90
2019-02-16T23:15:36.381Z,-0.90
2019-02-16T23:18:04.110Z,-0.90
2019-02-16T23:20:31.746Z,-0.90
2019-02-16T23:22:59.474Z,-1.00
2019-02-16T23:25:27.000Z,-1.00
2019-02-16T23:27:54.566Z,-1.00
2019-02-16T23:30:22.126Z,-1.00
2019-02-16T23:32:49.631Z,-1.10
2019-02-16T23:35:17.281Z,-1.10
2019-02-16T23:37:44.936Z,-1.10
2019-02-16T23:40:14.122Z,-1.20
2019-02-16T23:42:41.632Z,-1.30
2019-02-16T23:45:09.389Z,-1.30
2019-02-16T23:47:38.248Z,-1.40
2019-02-16T23:50:06.691Z,-1.40
2019-02-16T23:52:34.248Z,-1.40
2019-02-16T23:55:02.069Z,-1.40
2019-02-16T23:57:31.041Z,-1.40
2019-02-16T23:59:59.561Z,-1.40
